createdAt,value
2019-06-07T00:01:08.434Z,94.10
2019-06-07T00:03:37.363Z,94.10
2019-06-07T00:06:07.106Z,94.20
2019-06-07T00:08:36.766Z,94.10
2019-06-07T00:11:07.775Z,94.30
2019-06-07T00:13:36.651Z,94.10
2019-06-07T00:16:06.060Z,94.40
2019-06-07T00:18:35.348Z,94.30
2019-06-07T00:21:08.671Z,94.30
2019-06-07T00:23:34.858Z,94.20
2019-06-07T00:26:04.033Z,94.40
2019-06-07T00:28:33.309Z,94.30
2019-06-07T00:31:02.463Z,94.40
2019-06-07T00:33:31.384Z,94.40
2019-06-07T00:36:00.306Z,94.30
2019-06-07T00:38:29.348Z,94.30
2019-06-07T00:40:58.629Z,94.50
2019-06-07T00:43:28.606Z,94.70
2019-06-07T00:45:57.922Z,94.70
2019-06-07T00:48:32.369Z,94.70
2019-06-07T00:50:57.677Z,94.80
2019-06-07T00:53:31.742Z,94.60
2019-06-07T00:55:57.560Z,94.70
2019-06-07T00:58:27.889Z,94.90
2019-06-07T01:00:57.329Z,94.90
2019-06-07T01:03:26.848Z,95.00
2019-06-07T01:05:56.128Z,95.00
2019-06-07T01:08:29.618Z,94.90
2019-06-07T01:10:55.768Z,95.00
2019-06-07T01:13:26.929Z,95.20
2019-06-07T01:15:56.268Z,95.40
2019-06-07T01:18:37.818Z,95.30
2019-06-07T01:20:55.899Z,95.20
2019-06-07T01:24:01.413Z,95.20
2019-06-07T01:25:55.910Z,95.20
2019-06-07T01:28:27.098Z,95.10
2019-06-07T01:30:55.784Z,95.30
2019-06-07T01:33:31.873Z,95.40
2019-06-07T01:35:55.666Z,95.60
2019-06-07T01:38:26.747Z,95.50
2019-06-07T01:40:55.430Z,95.50
2019-06-07T01:43:27.030Z,95.50
2019-06-07T01:45:55.192Z,95.70
2019-06-07T01:48:27.761Z,95.50
2019-06-07T01:50:55.197Z,95.50
2019-06-07T01:53:25.907Z,95.60
2019-06-07T01:55:54.845Z,95.60
2019-06-07T01:58:26.480Z,95.50
2019-06-07T02:00:54.905Z,95.40
2019-06-07T02:03:26.965Z,95.50
2019-06-07T02:05:54.869Z,95.60
2019-06-07T02:08:26.519Z,95.80
2019-06-07T02:10:54.863Z,95.80
2019-06-07T02:13:27.416Z,95.80
2019-06-07T02:15:54.373Z,95.70
2019-06-07T02:18:27.720Z,95.70
2019-06-07T02:20:54.155Z,95.70
2019-06-07T02:23:27.537Z,95.80
2019-06-07T02:25:54.022Z,95.80
2019-06-07T02:28:29.887Z,96.00
2019-06-07T02:31:00.265Z,95.80
2019-06-07T02:33:28.361Z,95.70
2019-06-07T02:35:55.232Z,95.70
2019-06-07T02:38:29.399Z,95.90
2019-06-07T02:40:56.567Z,96.20
2019-06-07T02:43:28.257Z,96.00
2019-06-07T02:45:56.678Z,95.70
2019-06-07T02:48:28.022Z,95.70
2019-06-07T02:50:56.335Z,95.80
2019-06-07T02:53:27.065Z,95.80
2019-06-07T02:56:35.020Z,95.90
2019-06-07T02:58:31.100Z,95.90
2019-06-07T03:01:07.647Z,95.90
2019-06-07T03:03:30.625Z,95.90
2019-06-07T03:06:00.772Z,96.00
2019-06-07T03:08:35.462Z,95.90
2019-06-07T03:11:03.779Z,95.90
2019-06-07T03:13:40.810Z,95.70
2019-06-07T03:16:11.222Z,95.90
2019-06-07T03:19:02.034Z,96.20
2019-06-07T03:21:33.882Z,96.00
2019-06-07T03:24:04.049Z,96.10
2019-06-07T03:26:42.515Z,96.10
2019-06-07T03:29:05.467Z,96.10
2019-06-07T03:31:41.495Z,96.20
2019-06-07T03:34:07.874Z,96.20
2019-06-07T03:36:40.088Z,96.30
2019-06-07T03:39:08.863Z,96.60
2019-06-07T03:41:49.882Z,96.20
2019-06-07T03:44:10.396Z,96.20
2019-06-07T03:46:41.451Z,96.20
2019-06-07T03:49:11.722Z,96.20
2019-06-07T03:51:43.669Z,96.20
2019-06-07T03:54:13.807Z,96.30
2019-06-07T03:56:43.536Z,96.40
2019-06-07T03:59:13.331Z,96.40
2019-06-07T04:01:42.827Z,96.20
2019-06-07T04:04:13.198Z,96.20
2019-06-07T04:06:42.972Z,96.40
2019-06-07T04:09:12.723Z,96.40
2019-06-07T04:11:42.743Z,96.20
2019-06-07T04:14:12.259Z,96.10
2019-06-07T04:16:44.763Z,96.10
2019-06-07T04:19:12.940Z,96.10
2019-06-07T04:21:43.150Z,95.80
2019-06-07T04:24:13.307Z,95.50
2019-06-07T04:26:46.723Z,95.50
2019-06-07T04:29:35.623Z,95.30
2019-06-07T04:31:46.670Z,95.10
2019-06-07T04:34:16.469Z,94.60
2019-06-07T04:36:58.823Z,94.60
2019-06-07T04:39:20.646Z,94.30
2019-06-07T04:41:52.469Z,94.10
2019-06-07T04:44:25.204Z,93.90
2019-06-07T04:46:57.144Z,93.90
2019-06-07T04:49:27.248Z,93.60
2019-06-07T04:51:57.723Z,93.50
2019-06-07T04:54:30.919Z,93.20
2019-06-07T04:56:59.532Z,93.10
2019-06-07T05:00:04.151Z,92.90
2019-06-07T05:02:02.529Z,92.90
2019-06-07T05:04:33.173Z,92.60
2019-06-07T05:07:03.869Z,92.30
2019-06-07T05:09:37.525Z,92.20
2019-06-07T05:12:05.177Z,91.80
2019-06-07T05:14:36.752Z,91.60
2019-06-07T05:17:07.701Z,92.00
2019-06-07T05:19:39.159Z,92.30
2019-06-07T05:22:08.874Z,93.60
2019-06-07T05:24:41.551Z,93.70
2019-06-07T05:27:09.988Z,91.60
2019-06-07T05:29:41.622Z,90.50
2019-06-07T05:32:10.714Z,88.30
2019-06-07T05:34:43.290Z,88.20
2019-06-07T05:37:12.314Z,86.40
2019-06-07T05:39:46.078Z,87.70
2019-06-07T05:42:14.223Z,85.20
2019-06-07T05:44:45.710Z,86.00
2019-06-07T05:47:15.527Z,84.30
2019-06-07T05:49:47.200Z,82.90
2019-06-07T05:52:16.770Z,84.80
2019-06-07T05:54:47.107Z,84.60
2019-06-07T05:57:16.775Z,83.50
2019-06-07T05:59:47.624Z,83.20
2019-06-07T06:02:22.679Z,83.00
2019-06-07T06:04:49.481Z,81.80
2019-06-07T06:07:25.150Z,84.20
2019-06-07T06:09:55.265Z,82.90
2019-06-07T06:12:34.787Z,82.40
2019-06-07T06:14:56.371Z,82.60
2019-06-07T06:17:26.397Z,81.70
2019-06-07T06:19:56.301Z,82.20
2019-06-07T06:22:26.116Z,81.60
2019-06-07T06:28:03.534Z,79.80
2019-06-07T06:29:58.630Z,80.90
2019-06-07T06:32:54.382Z,79.90
2019-06-07T06:35:00.563Z,79.50
2019-06-07T06:37:30.391Z,78.60
2019-06-07T06:39:59.885Z,78.50
2019-06-07T06:42:29.484Z,79.10
2019-06-07T06:44:59.273Z,78.10
2019-06-07T06:47:29.135Z,78.20
2019-06-07T06:49:59.131Z,78.20
2019-06-07T06:52:28.652Z,78.00
2019-06-07T06:55:00.963Z,77.30
2019-06-07T06:57:29.729Z,76.50
2019-06-07T06:59:59.520Z,76.10
2019-06-07T07:02:29.515Z,75.50
2019-06-07T07:04:59.166Z,74.70
2019-06-07T07:07:29.303Z,75.50
2019-06-07T07:10:00.229Z,75.70
2019-06-07T07:12:30.221Z,75.70
2019-06-07T07:14:59.764Z,74.30
2019-06-07T07:17:47.747Z,74.50
2019-06-07T07:19:59.871Z,74.70
2019-06-07T07:22:29.948Z,72.80
2019-06-07T07:24:59.646Z,74.20
2019-06-07T07:27:29.880Z,72.80
2019-06-07T07:30:34.836Z,72.50
2019-06-07T07:32:30.968Z,71.60
2019-06-07T07:35:00.923Z,71.10
2019-06-07T07:37:30.845Z,71.80
2019-06-07T07:40:21.303Z,72.60
2019-06-07T07:42:32.281Z,71.30
2019-06-07T07:45:01.932Z,70.80
2019-06-07T07:47:31.564Z,70.50
2019-06-07T07:50:01.218Z,70.20
2019-06-07T07:52:30.967Z,69.60
2019-06-07T07:55:00.662Z,68.40
2019-06-07T07:57:30.150Z,68.60
2019-06-07T08:00:25.671Z,68.00
2019-06-07T08:02:30.966Z,68.10
2019-06-07T08:05:21.912Z,67.10
2019-06-07T08:07:31.625Z,66.70
2019-06-07T08:10:03.796Z,66.40
2019-06-07T08:12:54.663Z,66.40
2019-06-07T08:15:03.917Z,65.80
2019-06-07T08:17:34.249Z,66.80
2019-06-07T08:20:03.873Z,64.70
2019-06-07T08:22:33.797Z,64.70
2019-06-07T08:25:04.515Z,65.60
2019-06-07T08:27:34.592Z,63.40
2019-06-07T08:30:46.352Z,63.70
2019-06-07T08:32:40.573Z,63.00
2019-06-07T08:35:11.923Z,62.10
2019-06-07T08:38:14.777Z,61.50
2019-06-07T08:40:13.511Z,61.50
2019-06-07T08:43:03.131Z,62.30
2019-06-07T08:45:16.382Z,60.70
2019-06-07T08:47:45.455Z,60.80
2019-06-07T08:50:15.408Z,60.00
2019-06-07T08:52:45.170Z,59.90
2019-06-07T08:55:15.168Z,60.30
2019-06-07T08:57:45.423Z,59.50
2019-06-07T09:00:42.982Z,58.80
2019-06-07T09:02:46.877Z,59.10
2019-06-07T09:05:18.298Z,58.80
2019-06-07T09:07:48.428Z,58.70
2019-06-07T09:10:18.659Z,58.00
2019-06-07T09:12:48.687Z,57.60
2019-06-07T09:15:23.621Z,57.50
2019-06-07T09:18:35.409Z,54.50
2019-06-07T09:20:36.543Z,53.60
2019-06-07T09:22:59.083Z,52.30
2019-06-07T09:25:24.836Z,52.20
2019-06-07T09:28:00.707Z,52.50
2019-06-07T09:30:44.128Z,52.70
2019-06-07T09:33:14.043Z,54.80
2019-06-07T09:35:44.128Z,54.10
2019-06-07T09:38:25.014Z,53.60
2019-06-07T09:40:45.441Z,54.00
2019-06-07T09:45:46.776Z,53.30
2019-06-07T09:48:47.620Z,53.40
2019-06-07T09:50:47.972Z,52.20
2019-06-07T09:53:22.393Z,52.60
2019-06-07T09:55:49.772Z,51.70
2019-06-07T10:00:49.895Z,52.90
2019-06-07T10:03:22.342Z,53.00
2019-06-07T10:05:50.901Z,53.20
2019-06-07T10:09:26.142Z,53.20
2019-06-07T10:10:52.301Z,53.30
2019-06-07T10:13:22.208Z,52.90
2019-06-07T10:15:53.620Z,53.40
2019-06-07T10:18:23.293Z,53.40
2019-06-07T10:20:53.037Z,52.40
2019-06-07T10:23:22.916Z,51.70
2019-06-07T10:25:52.918Z,51.70
2019-06-07T10:28:22.332Z,51.80
2019-06-07T10:30:52.438Z,52.00
2019-06-07T10:33:22.201Z,51.60
2019-06-07T10:35:52.445Z,52.40
2019-06-07T10:38:21.842Z,51.60
2019-06-07T10:40:51.602Z,52.30
2019-06-07T10:43:21.251Z,52.60
2019-06-07T10:45:51.140Z,53.10
2019-06-07T10:48:24.271Z,53.70
2019-06-07T10:50:53.531Z,54.50
2019-06-07T10:53:23.306Z,53.10
2019-06-07T10:55:53.533Z,52.10
2019-06-07T10:58:23.660Z,52.60
2019-06-07T11:00:53.305Z,51.90
2019-06-07T11:03:22.938Z,51.90
2019-06-07T11:05:52.825Z,49.60
2019-06-07T11:08:22.705Z,48.50
2019-06-07T11:10:52.464Z,48.90
2019-06-07T11:13:22.232Z,48.30
2019-06-07T11:15:51.768Z,48.00
2019-06-07T11:18:20.916Z,48.10
2019-06-07T11:20:50.429Z,46.70
2019-06-07T11:23:21.906Z,47.40
2019-06-07T11:25:51.152Z,47.80
2019-06-07T11:28:20.824Z,47.50
2019-06-07T11:30:50.201Z,46.60
2019-06-07T11:33:20.323Z,46.10
2019-06-07T11:35:50.574Z,45.90
2019-06-07T11:38:20.101Z,47.40
2019-06-07T11:40:49.602Z,46.20
2019-06-07T11:43:19.632Z,46.30
2019-06-07T11:45:49.485Z,39.20
2019-06-07T11:48:19.024Z,41.80
2019-06-07T11:50:49.011Z,40.90
2019-06-07T11:53:20.024Z,37.30
2019-06-07T11:55:50.094Z,37.40
2019-06-07T11:58:21.919Z,35.50
2019-06-07T12:00:50.875Z,34.90
2019-06-07T12:03:20.753Z,32.40
2019-06-07T12:05:49.995Z,34.70
2019-06-07T12:08:19.502Z,38.00
2019-06-07T12:10:49.274Z,35.90
2019-06-07T12:13:19.139Z,36.90
2019-06-07T12:15:49.384Z,37.80
2019-06-07T12:18:19.780Z,40.70
2019-06-07T12:20:49.874Z,39.90
2019-06-07T12:23:20.274Z,40.80
2019-06-07T12:25:50.008Z,39.90
2019-06-07T12:28:20.912Z,38.20
2019-06-07T12:30:49.787Z,39.60
2019-06-07T12:33:19.793Z,39.20
2019-06-07T12:35:49.882Z,39.90
2019-06-07T12:38:21.054Z,36.90
2019-06-07T12:40:57.570Z,34.80
2019-06-07T12:43:23.320Z,35.60
2019-06-07T12:45:53.019Z,35.80
2019-06-07T12:48:25.960Z,37.10
2019-06-07T12:50:54.811Z,38.40
2019-06-07T12:53:27.935Z,37.70
2019-06-07T12:55:55.934Z,38.20
2019-06-07T12:58:31.023Z,38.30
2019-06-07T13:00:59.683Z,39.00
2019-06-07T13:03:28.079Z,39.70
2019-06-07T13:05:57.956Z,39.70
2019-06-07T13:08:28.300Z,40.50
2019-06-07T13:11:14.082Z,39.60
2019-06-07T13:13:29.633Z,40.80
2019-06-07T13:15:59.428Z,41.10
2019-06-07T13:18:28.927Z,41.00
2019-06-07T13:20:58.339Z,41.00
2019-06-07T13:23:28.932Z,42.00
2019-06-07T13:25:58.959Z,42.50
2019-06-07T13:28:29.103Z,42.40
2019-06-07T13:30:58.857Z,43.10
2019-06-07T13:33:35.422Z,44.20
2019-06-07T13:35:59.163Z,44.90
2019-06-07T13:38:29.118Z,47.50
2019-06-07T13:40:59.049Z,51.50
2019-06-07T13:43:29.058Z,57.00
2019-06-07T13:45:59.443Z,61.50
2019-06-07T13:48:29.053Z,67.40
2019-06-07T13:50:58.846Z,70.20
2019-06-07T13:53:29.074Z,66.60
2019-06-07T13:55:58.336Z,66.70
2019-06-07T13:58:28.694Z,67.50
2019-06-07T14:00:58.221Z,65.50
2019-06-07T14:03:32.711Z,65.60
2019-06-07T14:05:58.734Z,62.70
2019-06-07T14:08:29.758Z,61.40
2019-06-07T14:10:59.456Z,59.70
2019-06-07T14:13:30.397Z,60.70
2019-06-07T14:16:00.149Z,59.40
2019-06-07T14:18:30.618Z,58.10
2019-06-07T14:21:00.275Z,60.70
2019-06-07T14:23:47.789Z,59.20
2019-06-07T14:26:01.136Z,58.70
2019-06-07T14:28:32.877Z,58.30
2019-06-07T14:31:02.332Z,58.10
2019-06-07T14:33:32.551Z,56.60
2019-06-07T14:36:03.372Z,56.20
2019-06-07T14:38:36.973Z,58.20
2019-06-07T14:41:04.484Z,57.80
2019-06-07T14:43:34.216Z,57.40
2019-06-07T14:46:03.782Z,57.90
2019-06-07T14:48:34.485Z,58.60
2019-06-07T14:51:03.924Z,58.50
2019-06-07T14:53:33.326Z,58.70
2019-06-07T14:56:03.326Z,59.80
2019-06-07T14:58:38.073Z,59.60
2019-06-07T15:01:04.412Z,60.10
2019-06-07T15:03:34.816Z,59.90
2019-06-07T15:06:04.640Z,60.30
2019-06-07T15:08:34.897Z,60.50
2019-06-07T15:11:04.508Z,60.50
2019-06-07T15:13:35.588Z,61.50
2019-06-07T15:16:05.711Z,61.60
2019-06-07T15:18:36.114Z,61.30
2019-06-07T15:21:06.202Z,61.70
2019-06-07T15:23:35.863Z,62.10
2019-06-07T15:26:05.117Z,62.40
2019-06-07T15:28:36.395Z,62.40
2019-06-07T15:31:06.330Z,63.30
2019-06-07T15:33:36.564Z,64.50
2019-06-07T15:36:06.443Z,65.20
2019-06-07T15:38:37.199Z,65.20
2019-06-07T15:41:07.648Z,64.90
2019-06-07T15:43:37.472Z,64.60
2019-06-07T15:46:07.195Z,64.20
2019-06-07T15:48:38.153Z,64.30
2019-06-07T15:51:08.271Z,63.20
2019-06-07T15:53:43.176Z,64.10
2019-06-07T15:56:10.321Z,63.90
2019-06-07T15:58:41.252Z,65.00
2019-06-07T16:01:11.140Z,63.20
2019-06-07T16:03:41.961Z,65.00
2019-06-07T16:06:11.412Z,64.30
2019-06-07T16:08:40.785Z,64.30
2019-06-07T16:11:10.669Z,64.40
2019-06-07T16:13:40.797Z,64.80
2019-06-07T16:16:10.970Z,65.40
2019-06-07T16:18:41.542Z,66.20
2019-06-07T16:21:11.200Z,68.60
2019-06-07T16:23:42.115Z,71.50
2019-06-07T16:26:12.120Z,70.70
2019-06-07T16:28:42.537Z,73.10
2019-06-07T16:31:12.002Z,71.60
2019-06-07T16:33:43.023Z,73.20
2019-06-07T16:36:12.756Z,72.40
2019-06-07T16:38:42.505Z,74.00
2019-06-07T16:41:12.267Z,73.90
2019-06-07T16:43:42.691Z,75.60
2019-06-07T16:46:12.612Z,77.10
2019-06-07T16:48:42.913Z,75.90
2019-06-07T16:51:12.617Z,75.40
2019-06-07T16:53:42.439Z,75.90
2019-06-07T16:56:11.912Z,75.80
2019-06-07T16:58:42.300Z,75.00
2019-06-07T17:01:12.380Z,74.60
2019-06-07T17:03:43.456Z,73.30
2019-06-07T17:06:13.724Z,72.00
2019-06-07T17:08:44.274Z,72.30
2019-06-07T17:11:14.066Z,72.70
2019-06-07T17:13:44.427Z,72.10
2019-06-07T17:16:14.087Z,71.50
2019-06-07T17:18:45.074Z,71.50
2019-06-07T17:21:14.932Z,71.30
2019-06-07T17:23:45.352Z,70.50
2019-06-07T17:26:15.409Z,68.80
2019-06-07T17:28:45.823Z,68.40
2019-06-07T17:31:15.411Z,68.80
2019-06-07T17:33:45.977Z,68.70
2019-06-07T17:36:16.505Z,69.30
2019-06-07T17:38:46.569Z,69.90
2019-06-07T17:41:16.010Z,70.00
2019-06-07T17:43:52.073Z,69.10
2019-06-07T17:46:17.360Z,69.10
2019-06-07T17:48:47.581Z,67.50
2019-06-07T17:51:17.342Z,67.60
2019-06-07T17:53:47.828Z,68.20
2019-06-07T17:56:17.339Z,67.20
2019-06-07T17:58:46.622Z,67.20
2019-06-07T18:01:16.049Z,66.10
2019-06-07T18:03:45.431Z,66.10
2019-06-07T18:06:16.504Z,65.80
2019-06-07T18:08:47.512Z,66.10
2019-06-07T18:11:17.019Z,65.40
2019-06-07T18:13:46.629Z,65.40
2019-06-07T18:16:16.750Z,66.40
2019-06-07T18:18:46.555Z,66.00
2019-06-07T18:21:16.155Z,67.00
2019-06-07T18:23:46.217Z,66.40
2019-06-07T18:26:15.947Z,66.90
2019-06-07T18:28:46.581Z,66.00
2019-06-07T18:31:15.929Z,67.20
2019-06-07T18:33:46.746Z,67.70
2019-06-07T18:36:16.901Z,67.70
2019-06-07T18:38:46.902Z,67.40
2019-06-07T18:41:16.446Z,67.10
2019-06-07T18:43:46.945Z,67.30
2019-06-07T18:46:16.439Z,67.60
2019-06-07T18:48:46.446Z,67.50
2019-06-07T18:51:16.077Z,67.30
2019-06-07T18:53:45.458Z,67.40
2019-06-07T18:56:15.000Z,66.90
2019-06-07T18:58:44.430Z,66.40
2019-06-07T19:01:13.930Z,65.80
2019-06-07T19:03:46.229Z,66.50
2019-06-07T19:06:14.057Z,65.70
2019-06-07T19:08:43.445Z,65.10
2019-06-07T19:11:13.550Z,65.70
2019-06-07T19:13:42.733Z,65.90
2019-06-07T19:16:12.008Z,66.60
2019-06-07T19:18:41.310Z,65.90
2019-06-07T19:21:10.831Z,65.90
2019-06-07T19:23:39.981Z,66.50
2019-06-07T19:26:09.364Z,66.40
2019-06-07T19:28:38.553Z,67.20
2019-06-07T19:31:08.289Z,67.90
2019-06-07T19:33:48.736Z,67.10
2019-06-07T19:36:08.549Z,67.00
2019-06-07T19:38:37.969Z,67.60
2019-06-07T19:41:19.379Z,67.50
2019-06-07T19:43:38.443Z,67.30
2019-06-07T19:46:07.811Z,67.40
2019-06-07T19:48:36.889Z,67.50
2019-06-07T19:51:06.139Z,67.80
2019-06-07T19:53:35.060Z,68.10
2019-06-07T19:56:04.229Z,68.20
2019-06-07T19:58:33.859Z,68.20
2019-06-07T20:01:04.608Z,67.60
2019-06-07T20:03:33.507Z,67.80
2019-06-07T20:06:02.667Z,67.80
2019-06-07T20:08:31.967Z,68.00
2019-06-07T20:11:01.108Z,68.00
2019-06-07T20:13:30.270Z,68.30
2019-06-07T20:15:59.195Z,68.80
2019-06-07T20:18:28.234Z,68.30
2019-06-07T20:20:58.445Z,68.60
2019-06-07T20:23:27.640Z,68.50
2019-06-07T20:25:56.566Z,68.20
2019-06-07T20:28:25.536Z,68.80
2019-06-07T20:30:54.537Z,67.70
2019-06-07T20:33:23.444Z,67.90
2019-06-07T20:35:52.490Z,68.00
2019-06-07T20:38:21.293Z,67.90
2019-06-07T20:40:50.212Z,67.90
2019-06-07T20:43:19.037Z,67.60
2019-06-07T20:45:47.936Z,67.30
2019-06-07T20:48:16.616Z,67.70
2019-06-07T20:50:45.420Z,68.20
2019-06-07T20:53:14.459Z,68.10
2019-06-07T20:55:43.140Z,67.90
2019-06-07T20:58:11.940Z,67.60
2019-06-07T21:00:40.866Z,67.60
2019-06-07T21:03:09.793Z,68.00
2019-06-07T21:05:38.710Z,68.20
2019-06-07T21:08:10.729Z,67.70
2019-06-07T21:10:38.113Z,68.20
2019-06-07T21:13:08.169Z,68.00
2019-06-07T21:15:48.526Z,68.30
2019-06-07T21:18:12.037Z,68.00
2019-06-07T21:20:38.356Z,68.60
2019-06-07T21:23:07.280Z,69.00
2019-06-07T21:25:36.210Z,69.50
2019-06-07T21:28:05.200Z,69.50
2019-06-07T21:30:34.283Z,69.80
2019-06-07T21:33:03.607Z,70.10
2019-06-07T21:35:32.608Z,70.50
2019-06-07T21:38:01.897Z,71.20
2019-06-07T21:40:30.932Z,71.20
2019-06-07T21:43:01.993Z,71.60
2019-06-07T21:45:32.876Z,71.60
2019-06-07T21:48:03.182Z,71.80
2019-06-07T21:50:32.020Z,71.80
2019-06-07T21:53:02.206Z,71.90
2019-06-07T21:55:31.301Z,72.00
2019-06-07T21:58:00.225Z,72.00
2019-06-07T22:00:49.792Z,72.50
2019-06-07T22:03:18.724Z,72.10
2019-06-07T22:05:49.380Z,72.30
2019-06-07T22:08:18.472Z,72.00
2019-06-07T22:10:47.294Z,72.30
2019-06-07T22:13:16.192Z,72.50
2019-06-07T22:15:44.992Z,72.90
2019-06-07T22:18:14.657Z,73.10
2019-06-07T22:20:43.556Z,73.30
2019-06-07T22:23:12.761Z,73.30
2019-06-07T22:25:41.522Z,73.40
2019-06-07T22:28:10.329Z,73.80
2019-06-07T22:30:39.244Z,74.20
2019-06-07T22:33:08.694Z,74.70
2019-06-07T22:35:37.692Z,75.10
2019-06-07T22:38:06.507Z,75.70
2019-06-07T22:40:35.413Z,75.80
2019-06-07T22:43:04.214Z,75.80
2019-06-07T22:45:32.897Z,75.80
2019-06-07T22:48:01.696Z,76.00
2019-06-07T22:50:30.619Z,76.10
2019-06-07T22:52:59.419Z,76.30
2019-06-07T22:55:28.461Z,76.20
2019-06-07T22:57:58.945Z,76.60
2019-06-07T23:00:29.917Z,76.30
2019-06-07T23:02:58.959Z,76.60
2019-06-07T23:05:27.992Z,77.10
2019-06-07T23:07:56.907Z,77.30
2019-06-07T23:10:25.834Z,77.60
2019-06-07T23:12:54.753Z,77.70
2019-06-07T23:15:23.795Z,78.00
2019-06-07T23:17:52.597Z,77.90
2019-06-07T23:20:21.637Z,77.60
2019-06-07T23:22:50.919Z,77.40
2019-06-07T23:25:22.965Z,77.70
2019-06-07T23:27:50.487Z,77.40
2019-06-07T23:30:21.440Z,77.50
2019-06-07T23:32:50.085Z,77.60
2019-06-07T23:35:19.141Z,77.40
2019-06-07T23:37:48.182Z,77.40
2019-06-07T23:40:17.414Z,77.60
2019-06-07T23:42:46.252Z,77.20
2019-06-07T23:45:15.653Z,76.90
2019-06-07T23:47:44.697Z,76.60
2019-06-07T23:50:13.786Z,76.80
2019-06-07T23:52:42.662Z,76.70
2019-06-07T23:55:13.840Z,76.90
2019-06-07T23:57:42.907Z,76.90
